sensor_id;sensor_type;location;lat;lon;timestamp;pressure;altitude;pressure_sealevel;temperature;humidity
51526;BME280;37611;51.794;21.590;2023-02-20T00:01:23;100056.68;;;-0.27;92.25
51526;BME280;37611;51.794;21.590;2023-02-20T00:05:25;100064.65;;;-0.18;91.95
51526;BME280;37611;51.794;21.590;2023-02-20T00:09:27;100072.05;;;-0.11;92.08
51526;BME280;37611;51.794;21.590;2023-02-20T00:13:28;100069.09;;;-0.04;92.17
51526;BME280;37611;51.794;21.590;2023-02-20T00:17:30;100067.87;;;-0.01;92.48
51526;BME280;37611;51.794;21.590;2023-02-20T00:21:32;100065.59;;;0.03;92.04
51526;BME280;37611;51.794;21.590;2023-02-20T00:25:33;100069.92;;;0.03;92.30
51526;BME280;37611;51.794;21.590;2023-02-20T00:29:35;100063.21;;;0.02;92.73
51526;BME280;37611;51.794;21.590;2023-02-20T00:33:37;100057.30;;;0.04;93.81
51526;BME280;37611;51.794;21.590;2023-02-20T00:37:39;100060.63;;;0.06;94.99
51526;BME280;37611;51.794;21.590;2023-02-20T00:41:40;100061.86;;;0.02;96.64
51526;BME280;37611;51.794;21.590;2023-02-20T00:45:45;100054.18;;;0.04;96.58
51526;BME280;37611;51.794;21.590;2023-02-20T00:49:47;100053.63;;;0.01;98.23
51526;BME280;37611;51.794;21.590;2023-02-20T00:53:48;100052.80;;;-0.02;99.48
51526;BME280;37611;51.794;21.590;2023-02-20T00:57:50;100054.57;;;-0.03;99.96
51526;BME280;37611;51.794;21.590;2023-02-20T01:01:52;100059.31;;;-0.02;100.00
51526;BME280;37611;51.794;21.590;2023-02-20T01:05:53;100050.63;;;-0.01;99.84
51526;BME280;37611;51.794;21.590;2023-02-20T01:09:55;100048.31;;;0.01;99.92
51526;BME280;37611;51.794;21.590;2023-02-20T01:13:56;100045.53;;;0.05;99.74
51526;BME280;37611;51.794;21.590;2023-02-20T01:17:58;100042.17;;;0.06;99.94
51526;BME280;37611;51.794;21.590;2023-02-20T01:22:00;100038.17;;;0.07;99.82
51526;BME280;37611;51.794;21.590;2023-02-20T01:26:03;100037.23;;;0.12;99.49
51526;BME280;37611;51.794;21.590;2023-02-20T01:30:06;100034.51;;;0.14;99.63
51526;BME280;37611;51.794;21.590;2023-02-20T01:34:08;100031.19;;;0.18;99.53
51526;BME280;37611;51.794;21.590;2023-02-20T01:38:09;100032.83;;;0.19;99.51
51526;BME280;37611;51.794;21.590;2023-02-20T01:42:16;100027.19;;;0.22;99.17
51526;BME280;37611;51.794;21.590;2023-02-20T01:50:40;100029.14;;;0.27;98.92
51526;BME280;37611;51.794;21.590;2023-02-20T01:54:45;100022.21;;;0.31;98.47
51526;BME280;37611;51.794;21.590;2023-02-20T01:58:49;100028.85;;;0.32;98.11
51526;BME280;37611;51.794;21.590;2023-02-20T02:03:04;100031.52;;;0.31;97.71
51526;BME280;37611;51.794;21.590;2023-02-20T02:07:09;100031.00;;;0.28;97.43
51526;BME280;37611;51.794;21.590;2023-02-20T02:11:14;100027.52;;;0.25;97.12
51526;BME280;37611;51.794;21.590;2023-02-20T02:15:19;100019.69;;;0.27;97.21
51526;BME280;37611;51.794;21.590;2023-02-20T02:37:17;99998.43;;;0.31;96.48
51526;BME280;37611;51.794;21.590;2023-02-20T02:41:31;100001.90;;;0.28;96.48
51526;BME280;37611;51.794;21.590;2023-02-20T02:45:49;100000.21;;;0.27;96.38
51526;BME280;37611;51.794;21.590;2023-02-20T02:54:19;100004.23;;;0.32;96.95
51526;BME280;37611;51.794;21.590;2023-02-20T02:58:24;99998.80;;;0.37;96.89
51526;BME280;37611;51.794;21.590;2023-02-20T03:02:32;99999.99;;;0.40;96.61
51526;BME280;37611;51.794;21.590;2023-02-20T03:06:36;100003.74;;;0.41;96.34
51526;BME280;37611;51.794;21.590;2023-02-20T03:10:40;100005.25;;;0.38;96.42
51526;BME280;37611;51.794;21.590;2023-02-20T03:15:06;100007.32;;;0.35;96.30
51526;BME280;37611;51.794;21.590;2023-02-20T03:23:50;100000.41;;;0.29;96.23
51526;BME280;37611;51.794;21.590;2023-02-20T03:27:58;100002.92;;;0.31;96.67
51526;BME280;37611;51.794;21.590;2023-02-20T03:32:06;100005.35;;;0.36;96.78
51526;BME280;37611;51.794;21.590;2023-02-20T03:36:37;100011.98;;;0.41;96.86
51526;BME280;37611;51.794;21.590;2023-02-20T03:40:58;100008.81;;;0.48;96.80
51526;BME280;37611;51.794;21.590;2023-02-20T03:45:19;100003.59;;;0.55;96.70
51526;BME280;37611;51.794;21.590;2023-02-20T03:49:27;99999.73;;;0.59;96.49
51526;BME280;37611;51.794;21.590;2023-02-20T03:53:30;100001.11;;;0.62;96.28
51526;BME280;37611;51.794;21.590;2023-02-20T03:57:38;99998.32;;;0.63;96.15
51526;BME280;37611;51.794;21.590;2023-02-20T04:01:44;99995.20;;;0.63;96.37
51526;BME280;37611;51.794;21.590;2023-02-20T04:05:50;100001.55;;;0.67;96.42
51526;BME280;37611;51.794;21.590;2023-02-20T04:09:55;99993.48;;;0.75;96.51
51526;BME280;37611;51.794;21.590;2023-02-20T04:13:59;99992.80;;;0.84;96.25
51526;BME280;37611;51.794;21.590;2023-02-20T04:18:10;99990.16;;;0.91;95.75
51526;BME280;37611;51.794;21.590;2023-02-20T04:22:19;99991.62;;;0.98;95.90
51526;BME280;37611;51.794;21.590;2023-02-20T04:26:21;99990.10;;;1.06;95.78
51526;BME280;37611;51.794;21.590;2023-02-20T04:30:25;99988.79;;;1.05;95.21
51526;BME280;37611;51.794;21.590;2023-02-20T04:34:26;99993.02;;;1.00;95.07
51526;BME280;37611;51.794;21.590;2023-02-20T04:38:28;99985.89;;;0.92;94.97
51526;BME280;37611;51.794;21.590;2023-02-20T04:42:30;99980.92;;;0.83;94.92
51526;BME280;37611;51.794;21.590;2023-02-20T04:46:31;99977.59;;;0.70;94.99
51526;BME280;37611;51.794;21.590;2023-02-20T04:50:34;99970.13;;;0.59;95.18
51526;BME280;37611;51.794;21.590;2023-02-20T04:54:36;99967.23;;;0.50;95.45
51526;BME280;37611;51.794;21.590;2023-02-20T04:58:38;99953.91;;;0.41;95.57
51526;BME280;37611;51.794;21.590;2023-02-20T05:02:40;99956.70;;;0.35;95.79
51526;BME280;37611;51.794;21.590;2023-02-20T05:06:45;99953.80;;;0.28;95.94
51526;BME280;37611;51.794;21.590;2023-02-20T05:10:47;99959.19;;;0.21;96.11
51526;BME280;37611;51.794;21.590;2023-02-20T05:14:49;99958.00;;;0.12;96.39
51526;BME280;37611;51.794;21.590;2023-02-20T05:18:51;99955.16;;;0.05;96.49
51526;BME280;37611;51.794;21.590;2023-02-20T05:22:52;99955.36;;;-0.02;96.36
51526;BME280;37611;51.794;21.590;2023-02-20T05:26:54;99956.24;;;-0.12;96.85
51526;BME280;37611;51.794;21.590;2023-02-20T05:30:56;99952.33;;;-0.16;97.15
51526;BME280;37611;51.794;21.590;2023-02-20T05:34:58;99946.44;;;-0.15;97.39
51526;BME280;37611;51.794;21.590;2023-02-20T05:39:00;99944.02;;;-0.15;97.94
51526;BME280;37611;51.794;21.590;2023-02-20T05:43:01;99945.90;;;-0.11;98.00
51526;BME280;37611;51.794;21.590;2023-02-20T05:47:03;99946.42;;;-0.06;97.72
51526;BME280;37611;51.794;21.590;2023-02-20T05:51:05;99944.94;;;-0.04;98.00
51526;BME280;37611;51.794;21.590;2023-02-20T05:55:07;99946.00;;;-0.01;98.15
51526;BME280;37611;51.794;21.590;2023-02-20T05:59:10;99948.14;;;0.04;98.10
51526;BME280;37611;51.794;21.590;2023-02-20T06:03:15;99937.38;;;0.06;98.33
51526;BME280;37611;51.794;21.590;2023-02-20T06:07:17;99928.95;;;0.08;98.34
51526;BME280;37611;51.794;21.590;2023-02-20T06:11:18;99928.36;;;0.13;98.41
51526;BME280;37611;51.794;21.590;2023-02-20T06:15:20;99916.70;;;0.17;98.06
51526;BME280;37611;51.794;21.590;2023-02-20T06:19:23;99911.66;;;0.18;98.23
51526;BME280;37611;51.794;21.590;2023-02-20T06:23:25;99915.10;;;0.21;98.18
51526;BME280;37611;51.794;21.590;2023-02-20T06:27:27;99916.98;;;0.25;98.36
51526;BME280;37611;51.794;21.590;2023-02-20T06:31:28;99918.92;;;0.30;98.47
51526;BME280;37611;51.794;21.590;2023-02-20T06:35:30;99919.84;;;0.38;98.59
51526;BME280;37611;51.794;21.590;2023-02-20T06:39:32;99916.52;;;0.50;98.44
51526;BME280;37611;51.794;21.590;2023-02-20T06:43:33;99913.15;;;0.63;98.31
51526;BME280;37611;51.794;21.590;2023-02-20T06:47:35;99909.96;;;0.82;98.11
51526;BME280;37611;51.794;21.590;2023-02-20T06:51:37;99901.36;;;1.05;97.71
51526;BME280;37611;51.794;21.590;2023-02-20T06:55:40;99904.15;;;1.27;97.33
51526;BME280;37611;51.794;21.590;2023-02-20T06:59:44;99892.56;;;1.41;96.31
51526;BME280;37611;51.794;21.590;2023-02-20T07:03:48;99891.90;;;1.46;95.99
51526;BME280;37611;51.794;21.590;2023-02-20T07:07:50;99884.41;;;1.55;95.94
51526;BME280;37611;51.794;21.590;2023-02-20T07:11:53;99881.19;;;1.65;95.61
51526;BME280;37611;51.794;21.590;2023-02-20T07:15:55;99876.34;;;1.79;95.37
51526;BME280;37611;51.794;21.590;2023-02-20T07:19:56;99876.31;;;1.82;95.15
51526;BME280;37611;51.794;21.590;2023-02-20T07:23:59;99877.16;;;1.79;94.81
51526;BME280;37611;51.794;21.590;2023-02-20T07:28:01;99884.54;;;1.77;94.76
51526;BME280;37611;51.794;21.590;2023-02-20T07:32:02;99864.98;;;1.83;94.69
51526;BME280;37611;51.794;21.590;2023-02-20T07:36:05;99856.77;;;1.96;94.00
51526;BME280;37611;51.794;21.590;2023-02-20T07:40:08;99855.65;;;2.23;93.85
51526;BME280;37611;51.794;21.590;2023-02-20T07:44:11;99842.03;;;2.61;93.28
51526;BME280;37611;51.794;21.590;2023-02-20T07:48:15;99844.44;;;2.93;92.44
51526;BME280;37611;51.794;21.590;2023-02-20T07:52:16;99845.13;;;3.01;91.54
51526;BME280;37611;51.794;21.590;2023-02-20T07:56:18;99849.02;;;3.07;91.20
51526;BME280;37611;51.794;21.590;2023-02-20T08:00:21;99851.89;;;3.18;91.85
51526;BME280;37611;51.794;21.590;2023-02-20T08:04:24;99848.30;;;3.22;91.31
51526;BME280;37611;51.794;21.590;2023-02-20T08:08:25;99837.88;;;3.13;90.88
51526;BME280;37611;51.794;21.590;2023-02-20T08:12:27;99823.42;;;3.14;90.92
51526;BME280;37611;51.794;21.590;2023-02-20T08:16:29;99811.11;;;3.27;90.84
51526;BME280;37611;51.794;21.590;2023-02-20T08:20:31;99794.80;;;3.27;91.24
51526;BME280;37611;51.794;21.590;2023-02-20T08:24:33;99793.05;;;3.34;91.48
51526;BME280;37611;51.794;21.590;2023-02-20T08:28:34;99787.61;;;3.38;91.25
51526;BME280;37611;51.794;21.590;2023-02-20T08:32:36;99781.20;;;3.38;91.04
51526;BME280;37611;51.794;21.590;2023-02-20T08:36:39;99777.57;;;3.42;90.66
51526;BME280;37611;51.794;21.590;2023-02-20T08:40:41;99770.91;;;3.39;90.83
51526;BME280;37611;51.794;21.590;2023-02-20T08:44:43;99767.50;;;3.48;91.19
51526;BME280;37611;51.794;21.590;2023-02-20T08:48:44;99768.75;;;3.55;91.41
51526;BME280;37611;51.794;21.590;2023-02-20T08:52:46;99753.23;;;3.63;91.53
51526;BME280;37611;51.794;21.590;2023-02-20T08:56:48;99751.45;;;3.71;90.71
51526;BME280;37611;51.794;21.590;2023-02-20T09:00:50;99743.55;;;3.77;90.64
51526;BME280;37611;51.794;21.590;2023-02-20T09:04:52;99732.54;;;3.80;90.61
51526;BME280;37611;51.794;21.590;2023-02-20T09:08:54;99719.46;;;3.79;90.71
51526;BME280;37611;51.794;21.590;2023-02-20T09:12:56;99720.41;;;3.85;91.07
51526;BME280;37611;51.794;21.590;2023-02-20T09:16:57;99711.13;;;3.79;91.23
51526;BME280;37611;51.794;21.590;2023-02-20T09:20:59;99709.39;;;3.75;91.80
51526;BME280;37611;51.794;21.590;2023-02-20T09:25:02;99691.77;;;3.56;93.16
51526;BME280;37611;51.794;21.590;2023-02-20T09:29:05;99674.08;;;3.38;95.10
51526;BME280;37611;51.794;21.590;2023-02-20T09:33:07;99662.82;;;3.22;97.13
51526;BME280;37611;51.794;21.590;2023-02-20T09:37:10;99645.08;;;3.09;98.04
51526;BME280;37611;51.794;21.590;2023-02-20T09:41:24;99636.76;;;3.02;99.28
51526;BME280;37611;51.794;21.590;2023-02-20T09:45:32;99634.14;;;2.93;100.00
51526;BME280;37611;51.794;21.590;2023-02-20T09:49:35;99631.11;;;2.85;100.00
51526;BME280;37611;51.794;21.590;2023-02-20T09:53:49;99627.06;;;2.76;100.00
51526;BME280;37611;51.794;21.590;2023-02-20T09:57:54;99606.64;;;2.72;100.00
51526;BME280;37611;51.794;21.590;2023-02-20T10:06:19;99588.41;;;2.63;100.00
51526;BME280;37611;51.794;21.590;2023-02-20T10:10:24;99568.48;;;2.59;100.00
51526;BME280;37611;51.794;21.590;2023-02-20T10:27:55;99506.60;;;2.24;100.00
51526;BME280;37611;51.794;21.590;2023-02-20T10:32:13;99494.98;;;2.13;100.00
51526;BME280;37611;51.794;21.590;2023-02-20T10:36:24;99476.23;;;2.00;100.00
51526;BME280;37611;51.794;21.590;2023-02-20T10:40:32;99453.67;;;1.97;100.00
51526;BME280;37611;51.794;21.590;2023-02-20T10:44:52;99439.21;;;1.86;100.00
51526;BME280;37611;51.794;21.590;2023-02-20T10:49:00;99415.79;;;1.81;100.00
51526;BME280;37611;51.794;21.590;2023-02-20T10:53:42;99406.05;;;1.77;100.00
51526;BME280;37611;51.794;21.590;2023-02-20T10:58:35;99397.51;;;1.76;100.00
51526;BME280;37611;51.794;21.590;2023-02-20T11:02:18;99385.70;;;1.72;100.00
51526;BME280;37611;51.794;21.590;2023-02-20T11:06:24;99378.15;;;1.74;100.00
51526;BME280;37611;51.794;21.590;2023-02-20T11:10:26;99389.21;;;1.71;100.00
51526;BME280;37611;51.794;21.590;2023-02-20T11:14:33;99390.85;;;1.67;100.00
51526;BME280;37611;51.794;21.590;2023-02-20T11:18:37;99383.25;;;1.68;100.00
51526;BME280;37611;51.794;21.590;2023-02-20T11:22:47;99371.50;;;1.70;100.00
51526;BME280;37611;51.794;21.590;2023-02-20T11:26:58;99364.30;;;1.67;100.00
51526;BME280;37611;51.794;21.590;2023-02-20T11:31:04;99348.08;;;1.72;100.00
51526;BME280;37611;51.794;21.590;2023-02-20T11:39:29;99316.95;;;1.73;100.00
51526;BME280;37611;51.794;21.590;2023-02-20T11:43:34;99307.98;;;1.70;100.00
51526;BME280;37611;51.794;21.590;2023-02-20T11:47:37;99293.57;;;1.69;100.00
51526;BME280;37611;51.794;21.590;2023-02-20T11:55:41;99257.40;;;1.68;100.00
51526;BME280;37611;51.794;21.590;2023-02-20T11:59:45;99239.19;;;1.69;100.00
51526;BME280;37611;51.794;21.590;2023-02-20T12:03:53;99217.70;;;1.64;100.00
51526;BME280;37611;51.794;21.590;2023-02-20T12:07:57;99169.91;;;1.66;100.00
51526;BME280;37611;51.794;21.590;2023-02-20T12:11:59;99121.92;;;1.66;100.00
51526;BME280;37611;51.794;21.590;2023-02-20T12:20:21;99136.02;;;1.76;100.00
51526;BME280;37611;51.794;21.590;2023-02-20T12:34:05;99103.53;;;1.96;100.00
51526;BME280;37611;51.794;21.590;2023-02-20T12:46:23;99059.21;;;2.30;100.00
51526;BME280;37611;51.794;21.590;2023-02-20T12:54:56;99025.87;;;2.56;100.00
51526;BME280;37611;51.794;21.590;2023-02-20T13:03:19;98973.29;;;2.82;100.00
51526;BME280;37611;51.794;21.590;2023-02-20T13:07:28;98947.61;;;2.93;100.00
51526;BME280;37611;51.794;21.590;2023-02-20T13:11:40;98925.51;;;3.09;100.00
51526;BME280;37611;51.794;21.590;2023-02-20T13:16:03;98917.70;;;3.23;100.00
51526;BME280;37611;51.794;21.590;2023-02-20T13:24:27;98906.58;;;3.54;100.00
51526;BME280;37611;51.794;21.590;2023-02-20T13:28:38;98910.27;;;3.65;100.00
51526;BME280;37611;51.794;21.590;2023-02-20T13:32:45;98916.39;;;3.78;100.00
51526;BME280;37611;51.794;21.590;2023-02-20T13:36:50;98924.38;;;3.87;100.00
51526;BME280;37611;51.794;21.590;2023-02-20T13:44:57;98941.13;;;4.00;100.00
51526;BME280;37611;51.794;21.590;2023-02-20T13:49:01;98946.14;;;4.06;100.00
51526;BME280;37611;51.794;21.590;2023-02-20T13:53:03;98946.98;;;4.12;100.00
51526;BME280;37611;51.794;21.590;2023-02-20T13:57:16;98948.21;;;4.15;100.00
51526;BME280;37611;51.794;21.590;2023-02-20T14:01:22;98935.58;;;4.17;100.00
51526;BME280;37611;51.794;21.590;2023-02-20T14:05:31;98931.16;;;4.20;100.00
51526;BME280;37611;51.794;21.590;2023-02-20T14:09:32;98914.17;;;4.30;100.00
51526;BME280;37611;51.794;21.590;2023-02-20T14:13:36;98915.56;;;4.34;100.00
51526;BME280;37611;51.794;21.590;2023-02-20T14:17:41;98923.79;;;4.36;100.00
51526;BME280;37611;51.794;21.590;2023-02-20T14:21:43;98918.00;;;4.43;100.00
51526;BME280;37611;51.794;21.590;2023-02-20T14:26:04;98912.00;;;4.48;100.00
51526;BME280;37611;51.794;21.590;2023-02-20T14:30:29;98898.45;;;4.54;100.00
51526;BME280;37611;51.794;21.590;2023-02-20T14:34:50;98906.36;;;4.56;100.00
51526;BME280;37611;51.794;21.590;2023-02-20T14:43:28;98885.20;;;4.77;100.00
51526;BME280;37611;51.794;21.590;2023-02-20T14:47:53;98864.41;;;4.79;100.00
51526;BME280;37611;51.794;21.590;2023-02-20T14:56:15;98845.98;;;4.87;100.00
51526;BME280;37611;51.794;21.590;2023-02-20T15:04:23;98841.66;;;4.94;100.00
51526;BME280;37611;51.794;21.590;2023-02-20T15:08:34;98829.46;;;4.98;100.00
51526;BME280;37611;51.794;21.590;2023-02-20T15:12:39;98797.20;;;5.05;100.00
51526;BME280;37611;51.794;21.590;2023-02-20T15:16:41;98804.48;;;5.11;100.00
51526;BME280;37611;51.794;21.590;2023-02-20T15:20:45;98797.70;;;5.16;100.00
51526;BME280;37611;51.794;21.590;2023-02-20T15:24:49;98794.95;;;5.25;100.00
51526;BME280;37611;51.794;21.590;2023-02-20T15:33:11;98778.02;;;5.44;100.00
51526;BME280;37611;51.794;21.590;2023-02-20T15:37:17;98780.61;;;5.53;100.00
51526;BME280;37611;51.794;21.590;2023-02-20T15:41:20;98773.98;;;5.62;100.00
51526;BME280;37611;51.794;21.590;2023-02-20T15:45:26;98770.75;;;5.69;100.00
51526;BME280;37611;51.794;21.590;2023-02-20T15:49:28;98768.25;;;5.76;100.00
51526;BME280;37611;51.794;21.590;2023-02-20T15:53:31;98757.94;;;5.82;100.00
51526;BME280;37611;51.794;21.590;2023-02-20T15:57:33;98759.62;;;5.88;100.00
51526;BME280;37611;51.794;21.590;2023-02-20T16:01:35;98753.38;;;5.99;100.00
51526;BME280;37611;51.794;21.590;2023-02-20T16:05:37;98759.48;;;6.09;100.00
51526;BME280;37611;51.794;21.590;2023-02-20T16:09:38;98747.39;;;6.20;100.00
51526;BME280;37611;51.794;21.590;2023-02-20T16:13:42;98748.58;;;6.34;100.00
51526;BME280;37611;51.794;21.590;2023-02-20T16:17:46;98733.41;;;6.38;100.00
51526;BME280;37611;51.794;21.590;2023-02-20T16:21:49;98735.42;;;6.44;100.00
51526;BME280;37611;51.794;21.590;2023-02-20T16:25:51;98725.27;;;6.51;100.00
51526;BME280;37611;51.794;21.590;2023-02-20T16:29:54;98723.73;;;6.59;100.00
51526;BME280;37611;51.794;21.590;2023-02-20T16:33:57;98735.44;;;6.68;100.00
51526;BME280;37611;51.794;21.590;2023-02-20T16:37:58;98725.08;;;6.70;100.00
51526;BME280;37611;51.794;21.590;2023-02-20T16:42:17;98719.70;;;6.73;100.00
51526;BME280;37611;51.794;21.590;2023-02-20T16:46:20;98722.90;;;6.78;100.00
51526;BME280;37611;51.794;21.590;2023-02-20T16:50:25;98713.91;;;6.80;100.00
51526;BME280;37611;51.794;21.590;2023-02-20T16:54:29;98692.91;;;6.86;100.00
51526;BME280;37611;51.794;21.590;2023-02-20T16:58:31;98692.20;;;6.90;100.00
51526;BME280;37611;51.794;21.590;2023-02-20T17:02:32;98690.45;;;6.94;100.00
51526;BME280;37611;51.794;21.590;2023-02-20T17:06:35;98689.98;;;6.98;100.00
51526;BME280;37611;51.794;21.590;2023-02-20T17:10:36;98684.85;;;7.02;100.00
51526;BME280;37611;51.794;21.590;2023-02-20T17:14:38;98672.69;;;7.02;100.00
51526;BME280;37611;51.794;21.590;2023-02-20T17:18:41;98667.05;;;7.02;100.00
51526;BME280;37611;51.794;21.590;2023-02-20T17:22:42;98667.48;;;7.02;100.00
51526;BME280;37611;51.794;21.590;2023-02-20T17:26:44;98668.91;;;6.95;100.00
51526;BME280;37611;51.794;21.590;2023-02-20T17:30:46;98668.58;;;6.91;100.00
51526;BME280;37611;51.794;21.590;2023-02-20T17:34:53;98670.30;;;6.88;100.00
51526;BME280;37611;51.794;21.590;2023-02-20T17:38:55;98668.93;;;6.85;100.00
51526;BME280;37611;51.794;21.590;2023-02-20T17:42:56;98663.13;;;6.85;100.00
51526;BME280;37611;51.794;21.590;2023-02-20T17:46:59;98661.39;;;6.83;100.00
51526;BME280;37611;51.794;21.590;2023-02-20T17:51:01;98657.51;;;6.84;100.00
51526;BME280;37611;51.794;21.590;2023-02-20T17:55:03;98654.61;;;6.87;100.00
51526;BME280;37611;51.794;21.590;2023-02-20T17:59:04;98651.25;;;6.84;100.00
51526;BME280;37611;51.794;21.590;2023-02-20T18:03:06;98644.13;;;6.90;100.00
51526;BME280;37611;51.794;21.590;2023-02-20T18:07:09;98639.94;;;6.92;100.00
51526;BME280;37611;51.794;21.590;2023-02-20T18:11:11;98633.24;;;6.98;100.00
51526;BME280;37611;51.794;21.590;2023-02-20T18:15:12;98634.56;;;6.99;100.00
51526;BME280;37611;51.794;21.590;2023-02-20T18:19:17;98630.50;;;7.01;100.00
51526;BME280;37611;51.794;21.590;2023-02-20T18:23:19;98626.85;;;7.06;100.00
51526;BME280;37611;51.794;21.590;2023-02-20T18:27:20;98622.81;;;7.09;100.00
51526;BME280;37611;51.794;21.590;2023-02-20T18:31:24;98617.67;;;7.11;100.00
51526;BME280;37611;51.794;21.590;2023-02-20T18:35:26;98624.58;;;7.17;100.00
51526;BME280;37611;51.794;21.590;2023-02-20T18:39:27;98611.02;;;7.21;100.00
51526;BME280;37611;51.794;21.590;2023-02-20T18:43:29;98597.27;;;7.25;100.00
51526;BME280;37611;51.794;21.590;2023-02-20T18:47:31;98598.88;;;7.23;100.00
51526;BME280;37611;51.794;21.590;2023-02-20T18:51:43;98596.13;;;7.24;100.00
51526;BME280;37611;51.794;21.590;2023-02-20T18:55:45;98591.66;;;7.21;100.00
51526;BME280;37611;51.794;21.590;2023-02-20T18:59:46;98584.05;;;7.22;100.00
51526;BME280;37611;51.794;21.590;2023-02-20T19:03:52;98588.39;;;7.23;100.00
51526;BME280;37611;51.794;21.590;2023-02-20T19:07:54;98581.57;;;7.24;100.00
51526;BME280;37611;51.794;21.590;2023-02-20T19:11:56;98585.52;;;7.21;100.00
51526;BME280;37611;51.794;21.590;2023-02-20T19:15:57;98580.44;;;7.17;100.00
51526;BME280;37611;51.794;21.590;2023-02-20T19:20:00;98577.89;;;7.12;100.00
51526;BME280;37611;51.794;21.590;2023-02-20T19:24:02;98583.51;;;7.09;100.00
51526;BME280;37611;51.794;21.590;2023-02-20T19:28:04;98588.64;;;7.08;100.00
51526;BME280;37611;51.794;21.590;2023-02-20T19:32:06;98592.67;;;7.06;100.00
51526;BME280;37611;51.794;21.590;2023-02-20T19:36:08;98592.19;;;7.06;100.00
51526;BME280;37611;51.794;21.590;2023-02-20T19:40:10;98591.08;;;7.03;100.00
51526;BME280;37611;51.794;21.590;2023-02-20T19:44:13;98585.60;;;7.01;100.00
51526;BME280;37611;51.794;21.590;2023-02-20T19:48:18;98588.84;;;6.95;100.00
51526;BME280;37611;51.794;21.590;2023-02-20T19:52:20;98585.48;;;6.92;100.00
51526;BME280;37611;51.794;21.590;2023-02-20T19:56:21;98596.20;;;6.89;100.00
51526;BME280;37611;51.794;21.590;2023-02-20T20:00:23;98588.32;;;6.85;100.00
51526;BME280;37611;51.794;21.590;2023-02-20T20:04:26;98584.20;;;6.84;100.00
51526;BME280;37611;51.794;21.590;2023-02-20T20:08:28;98592.48;;;6.80;100.00
51526;BME280;37611;51.794;21.590;2023-02-20T20:12:30;98603.64;;;6.82;100.00
51526;BME280;37611;51.794;21.590;2023-02-20T20:16:47;98595.39;;;6.79;100.00
51526;BME280;37611;51.794;21.590;2023-02-20T20:20:49;98594.94;;;6.75;100.00
51526;BME280;37611;51.794;21.590;2023-02-20T20:24:51;98592.52;;;6.74;100.00
51526;BME280;37611;51.794;21.590;2023-02-20T20:28:53;98590.23;;;6.69;100.00
51526;BME280;37611;51.794;21.590;2023-02-20T20:32:55;98587.15;;;6.67;100.00
51526;BME280;37611;51.794;21.590;2023-02-20T20:36:57;98587.15;;;6.65;100.00
51526;BME280;37611;51.794;21.590;2023-02-20T20:41:01;98584.33;;;6.67;100.00
51526;BME280;37611;51.794;21.590;2023-02-20T20:45:02;98581.55;;;6.65;100.00
51526;BME280;37611;51.794;21.590;2023-02-20T20:49:04;98574.45;;;6.67;100.00
51526;BME280;37611;51.794;21.590;2023-02-20T20:53:06;98581.52;;;6.64;100.00
51526;BME280;37611;51.794;21.590;2023-02-20T20:57:09;98580.51;;;6.60;100.00
51526;BME280;37611;51.794;21.590;2023-02-20T21:01:11;98585.36;;;6.57;100.00
51526;BME280;37611;51.794;21.590;2023-02-20T21:05:13;98583.59;;;6.56;100.00
51526;BME280;37611;51.794;21.590;2023-02-20T21:09:15;98577.70;;;6.57;100.00
51526;BME280;37611;51.794;21.590;2023-02-20T21:13:16;98567.98;;;6.60;100.00
51526;BME280;37611;51.794;21.590;2023-02-20T21:17:18;98565.98;;;6.61;100.00
51526;BME280;37611;51.794;21.590;2023-02-20T21:21:28;98566.91;;;6.60;100.00
51526;BME280;37611;51.794;21.590;2023-02-20T21:25:30;98561.56;;;6.63;100.00
51526;BME280;37611;51.794;21.590;2023-02-20T21:29:32;98557.06;;;6.65;100.00
51526;BME280;37611;51.794;21.590;2023-02-20T21:33:35;98561.23;;;6.68;100.00
51526;BME280;37611;51.794;21.590;2023-02-20T21:37:36;98557.39;;;6.67;100.00
51526;BME280;37611;51.794;21.590;2023-02-20T21:41:38;98560.05;;;6.70;100.00
51526;BME280;37611;51.794;21.590;2023-02-20T21:45:59;98565.24;;;6.71;100.00
51526;BME280;37611;51.794;21.590;2023-02-20T21:50:01;98561.63;;;6.70;100.00
51526;BME280;37611;51.794;21.590;2023-02-20T21:54:05;98566.06;;;6.67;100.00
51526;BME280;37611;51.794;21.590;2023-02-20T21:58:06;98564.92;;;6.68;100.00
51526;BME280;37611;51.794;21.590;2023-02-20T22:02:17;98561.33;;;6.69;100.00
51526;BME280;37611;51.794;21.590;2023-02-20T22:06:18;98570.50;;;6.70;100.00
51526;BME280;37611;51.794;21.590;2023-02-20T22:10:20;98566.52;;;6.71;100.00
51526;BME280;37611;51.794;21.590;2023-02-20T22:14:40;98570.95;;;6.70;100.00
51526;BME280;37611;51.794;21.590;2023-02-20T22:19:01;98568.84;;;6.70;100.00
51526;BME280;37611;51.794;21.590;2023-02-20T22:23:21;98576.20;;;6.76;100.00
51526;BME280;37611;51.794;21.590;2023-02-20T22:27:41;98581.65;;;6.76;100.00
51526;BME280;37611;51.794;21.590;2023-02-20T22:32:02;98583.50;;;6.76;100.00
51526;BME280;37611;51.794;21.590;2023-02-20T22:36:22;98588.02;;;6.75;100.00
51526;BME280;37611;51.794;21.590;2023-02-20T22:40:44;98581.90;;;6.75;100.00
51526;BME280;37611;51.794;21.590;2023-02-20T22:45:05;98580.55;;;6.76;100.00
51526;BME280;37611;51.794;21.590;2023-02-20T22:49:25;98587.89;;;6.78;100.00
51526;BME280;37611;51.794;21.590;2023-02-20T22:53:46;98589.91;;;6.75;100.00
51526;BME280;37611;51.794;21.590;2023-02-20T22:58:07;98592.98;;;6.72;100.00
51526;BME280;37611;51.794;21.590;2023-02-20T23:02:28;98590.66;;;6.71;100.00
51526;BME280;37611;51.794;21.590;2023-02-20T23:06:50;98600.36;;;6.65;100.00
51526;BME280;37611;51.794;21.590;2023-02-20T23:11:10;98604.34;;;6.63;100.00
51526;BME280;37611;51.794;21.590;2023-02-20T23:15:30;98597.98;;;6.64;100.00
51526;BME280;37611;51.794;21.590;2023-02-20T23:19:52;98595.38;;;6.61;100.00